Time;durP1;ratioP1;P1;durP2;ratioP2;P2;SDS_P1;SDS_P2;PMS_P1;PMS_P2;Temp;Humidity;BMP_temperature;BMP_pressure;BME280_temperature;BME280_humidity;BME280_pressure;Samples;Min_cycle;Max_cycle;Signal;HPM_P1;HPM_P2
2022/05/07 00:00:42;;;;;;;0.90;0.90;;;11.40;99.90;;;;;;5032830;28;20599;-63
2022/05/07 00:03:09;;;;;;;0.83;0.83;;;11.30;99.90;;;;;;5033288;28;20663;-62
2022/05/07 00:05:37;;;;;;;0.90;0.90;;;11.20;99.90;;;;;;5039276;28;20296;-63
2022/05/07 00:08:05;;;;;;;0.90;0.90;;;11.20;99.90;;;;;;5050933;28;20204;-63
2022/05/07 00:10:32;;;;;;;0.90;0.90;;;11.10;99.90;;;;;;5052928;28;20265;-62
2022/05/07 00:13:00;;;;;;;1.00;1.00;;;11.00;99.90;;;;;;5052978;28;20222;-63
2022/05/07 00:15:27;;;;;;;0.90;0.90;;;11.00;99.90;;;;;;5052607;28;20294;-63
2022/05/07 00:18:03;;;;;;;1.07;1.00;;;11.00;99.90;;;;;;5053192;28;20210;-62
2022/05/07 00:20:31;;;;;;;0.80;0.80;;;11.10;99.90;;;;;;5052129;28;20219;-62
2022/05/07 00:22:59;;;;;;;0.80;0.80;;;10.90;99.90;;;;;;5052762;28;20210;-63
2022/05/07 00:25:26;;;;;;;0.77;0.77;;;10.90;99.90;;;;;;5052813;28;20286;-63
2022/05/07 00:27:53;;;;;;;0.90;0.90;;;10.90;99.90;;;;;;5051756;28;20295;-64
2022/05/07 00:30:22;;;;;;;0.90;0.90;;;10.90;99.90;;;;;;5052231;28;20206;-63
2022/05/07 00:32:49;;;;;;;0.80;0.80;;;10.90;99.90;;;;;;5052558;28;20210;-62
2022/05/07 00:35:16;;;;;;;0.90;0.90;;;10.90;99.90;;;;;;5052506;28;20236;-62
2022/05/07 00:37:43;;;;;;;0.90;0.90;;;10.90;99.90;;;;;;5051671;28;20269;-62
2022/05/07 00:40:10;;;;;;;0.90;0.90;;;11.00;99.90;;;;;;5052217;28;20214;-63
2022/05/07 00:42:38;;;;;;;0.83;0.83;;;11.00;99.90;;;;;;5049361;28;20208;-61
2022/05/07 00:45:06;;;;;;;0.93;0.90;;;11.00;99.90;;;;;;5037327;28;20223;-62
2022/05/07 00:47:34;;;;;;;0.80;0.80;;;11.10;99.90;;;;;;5033169;28;20229;-63
2022/05/07 00:52:44;;;;;;;0.90;0.90;;;11.00;99.90;;;;;;5032476;28;20204;-63
2022/05/07 00:55:12;;;;;;;0.90;0.90;;;11.00;99.90;;;;;;5036074;28;20269;-62
2022/05/07 00:57:40;;;;;;;0.80;0.80;;;10.90;99.90;;;;;;5052921;28;20223;-62
2022/05/07 01:00:08;;;;;;;0.80;0.80;;;10.90;99.90;;;;;;5049879;28;20210;-63
2022/05/07 01:02:37;;;;;;;1.13;0.90;;;10.70;99.90;;;;;;5040662;28;20208;-62
2022/05/07 01:05:05;;;;;;;1.07;1.00;;;10.90;99.90;;;;;;5051756;28;20204;-63
2022/05/07 01:07:34;;;;;;;0.90;0.90;;;10.70;99.90;;;;;;5040252;28;20780;-63
2022/05/07 01:10:02;;;;;;;0.90;0.90;;;10.60;99.90;;;;;;5037792;28;20212;-63
2022/05/07 01:12:30;;;;;;;1.03;1.03;;;10.50;99.90;;;;;;5048873;28;20212;-63
2022/05/07 01:14:58;;;;;;;1.00;1.00;;;10.70;99.90;;;;;;5047805;28;20294;-62
2022/05/07 01:17:25;;;;;;;0.80;0.80;;;10.40;99.90;;;;;;5039494;28;20229;-64
2022/05/07 01:19:55;;;;;;;1.07;0.90;;;10.40;99.90;;;;;;5043968;28;20200;-63
2022/05/07 01:22:23;;;;;;;0.90;0.90;;;10.40;99.90;;;;;;5052217;28;20219;-63
2022/05/07 01:24:50;;;;;;;0.80;0.80;;;10.40;99.90;;;;;;5052048;28;20693;-62
2022/05/07 01:27:17;;;;;;;0.80;0.80;;;10.30;99.90;;;;;;5051916;28;20310;-63
2022/05/07 01:29:43;;;;;;;0.80;0.80;;;10.30;99.90;;;;;;5052368;28;20204;-63
2022/05/07 01:32:10;;;;;;;0.80;0.80;;;10.30;99.90;;;;;;5052173;28;20200;-62
2022/05/07 01:34:37;;;;;;;0.83;0.83;;;10.30;99.90;;;;;;5052272;28;20262;-63
2022/05/07 01:37:04;;;;;;;1.07;1.03;;;10.40;99.90;;;;;;5039609;28;20312;-63
2022/05/07 01:39:33;;;;;;;1.00;1.00;;;10.30;99.90;;;;;;5052003;28;20286;-63
2022/05/07 01:41:59;;;;;;;0.80;0.80;;;10.40;99.90;;;;;;5051910;28;20314;-62
2022/05/07 01:44:26;;;;;;;1.00;1.00;;;10.40;99.90;;;;;;5051798;28;20293;-63
2022/05/07 01:49:40;;;;;;;1.47;0.97;;;10.30;99.90;;;;;;5033996;28;20670;-63
2022/05/07 01:52:07;;;;;;;0.80;0.80;;;10.20;99.90;;;;;;5051792;28;20283;-64
2022/05/07 01:54:35;;;;;;;1.00;1.00;;;10.20;99.90;;;;;;5051285;28;20730;-64
2022/05/07 01:57:02;;;;;;;0.77;0.77;;;10.20;99.90;;;;;;5051733;28;20728;-62
2022/05/07 01:59:29;;;;;;;1.10;1.00;;;10.10;99.90;;;;;;5051225;28;20298;-63
2022/05/07 02:01:56;;;;;;;0.80;0.80;;;10.10;99.90;;;;;;5051754;28;20231;-63
2022/05/07 02:04:23;;;;;;;0.80;0.80;;;10.00;99.90;;;;;;5051647;28;20291;-63
2022/05/07 02:06:50;;;;;;;0.90;0.90;;;10.00;99.90;;;;;;5051534;28;20232;-62
2022/05/07 02:09:17;;;;;;;0.87;0.87;;;10.00;99.90;;;;;;5051279;28;20235;-63
2022/05/07 02:11:45;;;;;;;0.80;0.80;;;9.90;99.90;;;;;;5049336;28;20551;-62
2022/05/07 02:14:12;;;;;;;0.90;0.90;;;9.90;99.90;;;;;;5051362;28;20208;-63
2022/05/07 02:16:39;;;;;;;0.90;0.90;;;9.90;99.90;;;;;;5051593;28;20236;-63
2022/05/07 02:19:06;;;;;;;1.03;1.03;;;9.90;99.90;;;;;;5051524;28;20253;-64
2022/05/07 02:21:33;;;;;;;0.97;0.97;;;10.00;99.90;;;;;;5031564;28;20284;-63
2022/05/07 02:24:00;;;;;;;0.60;0.60;;;10.00;99.90;;;;;;5031531;28;20209;-63
2022/05/07 02:26:26;;;;;;;1.17;1.10;;;9.90;99.90;;;;;;5031747;28;20224;-64
2022/05/07 02:28:55;;;;;;;0.80;0.80;;;9.90;99.90;;;;;;5034143;28;20350;-63
2022/05/07 02:31:21;;;;;;;0.90;0.90;;;9.90;99.90;;;;;;5036722;28;20283;-64
2022/05/07 02:33:48;;;;;;;1.03;1.03;;;9.90;99.90;;;;;;5036856;28;20300;-62
2022/05/07 02:36:15;;;;;;;0.90;0.90;;;9.90;99.90;;;;;;5036640;28;20282;-64
2022/05/07 02:38:42;;;;;;;0.70;0.70;;;9.90;99.90;;;;;;5041011;28;20704;-62
2022/05/07 02:43:55;;;;;;;0.83;0.83;;;9.90;99.90;;;;;;5039999;28;20223;-63
2022/05/07 02:46:22;;;;;;;1.10;0.90;;;9.90;99.90;;;;;;5043070;28;20248;-62
2022/05/07 02:48:49;;;;;;;0.97;0.97;;;9.90;99.90;;;;;;5046793;28;20200;-62
2022/05/07 02:51:16;;;;;;;1.20;1.10;;;9.80;99.90;;;;;;5042870;28;20200;-63
2022/05/07 02:53:43;;;;;;;0.80;0.80;;;9.80;99.90;;;;;;5035172;28;20295;-63
2022/05/07 02:56:10;;;;;;;0.73;0.73;;;9.80;99.90;;;;;;5032090;28;20251;-64
2022/05/07 02:58:36;;;;;;;0.90;0.90;;;9.80;99.90;;;;;;5031035;28;20569;-65
2022/05/07 03:01:05;;;;;;;0.80;0.80;;;9.70;99.90;;;;;;5030967;28;20435;-63
2022/05/07 03:03:32;;;;;;;0.80;0.80;;;9.70;99.90;;;;;;5031562;28;20287;-64
2022/05/07 03:05:59;;;;;;;1.00;1.00;;;9.70;99.90;;;;;;5033440;28;20228;-64
2022/05/07 03:08:26;;;;;;;1.17;0.80;;;9.60;99.90;;;;;;5035124;28;20717;-64
2022/05/07 03:10:53;;;;;;;0.70;0.70;;;9.60;99.90;;;;;;5036633;28;20201;-64
2022/05/07 03:13:20;;;;;;;0.80;0.80;;;9.60;99.90;;;;;;5036592;28;20197;-63
2022/05/07 03:15:47;;;;;;;0.80;0.80;;;9.60;99.90;;;;;;5036567;28;20260;-62
2022/05/07 03:18:15;;;;;;;0.90;0.90;;;9.60;99.90;;;;;;5035583;28;20214;-62
2022/05/07 03:20:42;;;;;;;0.60;0.60;;;9.60;99.90;;;;;;5035432;28;20282;-63
2022/05/07 03:23:09;;;;;;;1.10;1.00;;;9.70;99.90;;;;;;5035608;28;20658;-63
2022/05/07 03:25:36;;;;;;;0.80;0.80;;;9.70;99.90;;;;;;5035142;28;20693;-62
2022/05/07 03:28:03;;;;;;;1.03;1.00;;;9.60;99.90;;;;;;5034808;28;20214;-63
2022/05/07 03:30:30;;;;;;;0.87;0.87;;;9.50;99.90;;;;;;5035166;28;20304;-67
2022/05/07 03:32:56;;;;;;;0.83;0.83;;;9.60;99.90;;;;;;5037482;28;20663;-63
2022/05/07 03:35:25;;;;;;;1.00;1.00;;;9.60;99.90;;;;;;5037344;28;20672;-62
2022/05/07 03:37:51;;;;;;;0.90;0.90;;;9.60;99.90;;;;;;5054624;28;20620;-63
2022/05/07 03:40:18;;;;;;;0.90;0.90;;;9.60;99.90;;;;;;5057476;28;20219;-63
2022/05/07 03:42:45;;;;;;;0.80;0.80;;;9.60;99.90;;;;;;5057208;28;20656;-63
2022/05/07 03:45:12;;;;;;;0.77;0.77;;;9.60;99.90;;;;;;5049083;28;20646;-62
2022/05/07 03:47:39;;;;;;;0.80;0.80;;;9.60;99.90;;;;;;5057293;28;20257;-62
2022/05/07 03:50:07;;;;;;;0.90;0.90;;;9.50;99.90;;;;;;5056255;28;20235;-61
2022/05/07 03:55:20;;;;;;;0.87;0.87;;;9.50;99.90;;;;;;5055297;28;20291;-62
2022/05/07 03:57:46;;;;;;;0.90;0.90;;;9.50;99.90;;;;;;5053512;28;20224;-61
2022/05/07 04:00:14;;;;;;;0.77;0.77;;;9.50;99.90;;;;;;5052552;28;20890;-61
2022/05/07 04:02:41;;;;;;;0.70;0.70;;;9.40;99.90;;;;;;5047020;28;20252;-62
2022/05/07 04:05:09;;;;;;;1.33;0.97;;;9.30;99.90;;;;;;5042315;28;20288;-63
2022/05/07 04:07:37;;;;;;;2.63;1.00;;;9.30;99.90;;;;;;5033997;28;20962;-62
2022/05/07 04:10:05;;;;;;;0.97;0.97;;;9.40;99.90;;;;;;5031676;28;20211;-61
2022/05/07 04:12:32;;;;;;;0.87;0.87;;;9.30;99.90;;;;;;5033474;28;20283;-62
2022/05/07 04:15:00;;;;;;;0.80;0.80;;;9.40;99.90;;;;;;5033366;28;20204;-61
2022/05/07 04:17:26;;;;;;;0.80;0.80;;;9.40;99.90;;;;;;5032903;28;20762;-64
2022/05/07 04:19:54;;;;;;;0.80;0.80;;;9.40;99.90;;;;;;5032438;28;20291;-63
2022/05/07 04:22:22;;;;;;;0.80;0.80;;;9.40;99.90;;;;;;5032285;28;20270;-61
2022/05/07 04:24:50;;;;;;;0.90;0.90;;;9.40;99.90;;;;;;5033093;28;20297;-61
2022/05/07 04:27:17;;;;;;;0.90;0.90;;;9.30;99.90;;;;;;5033139;28;20232;-61
2022/05/07 04:29:44;;;;;;;0.80;0.80;;;9.20;99.90;;;;;;5031963;28;20311;-61
2022/05/07 04:32:11;;;;;;;0.93;0.93;;;9.20;99.90;;;;;;5031916;28;20208;-61
2022/05/07 04:34:37;;;;;;;1.00;1.00;;;9.00;99.90;;;;;;5048387;28;20204;-61
2022/05/07 04:37:05;;;;;;;1.10;1.10;;;9.00;99.90;;;;;;5044456;28;20224;-63
2022/05/07 04:39:34;;;;;;;0.90;0.90;;;9.00;99.90;;;;;;5052282;28;20239;-62
2022/05/07 04:42:02;;;;;;;0.90;0.90;;;9.10;99.90;;;;;;5051831;28;20224;-62
2022/05/07 04:44:29;;;;;;;1.63;1.03;;;9.10;99.90;;;;;;5052374;28;20291;-63
2022/05/07 04:46:57;;;;;;;2.23;1.10;;;9.10;99.90;;;;;;5052403;28;20281;-62
2022/05/07 04:49:24;;;;;;;0.77;0.77;;;9.20;99.90;;;;;;5051621;28;20226;-62
2022/05/07 04:51:51;;;;;;;0.90;0.90;;;9.20;99.90;;;;;;5049259;28;20205;-63
2022/05/07 04:54:19;;;;;;;0.90;0.90;;;9.20;99.90;;;;;;5031821;28;20211;-63
2022/05/07 04:56:46;;;;;;;1.00;1.00;;;9.20;99.90;;;;;;5032497;28;20292;-61
2022/05/07 04:59:15;;;;;;;0.90;0.90;;;9.30;99.90;;;;;;5031443;28;20813;-64
2022/05/07 05:01:41;;;;;;;1.00;1.00;;;9.30;99.90;;;;;;5032264;28;20781;-61
2022/05/07 05:04:08;;;;;;;0.80;0.80;;;9.30;99.90;;;;;;5031335;28;20205;-63
2022/05/07 05:06:35;;;;;;;1.07;0.97;;;9.30;99.90;;;;;;5032403;28;20264;-62
2022/05/07 05:09:02;;;;;;;1.00;1.00;;;9.30;99.90;;;;;;5031095;28;20204;-61
2022/05/07 05:11:29;;;;;;;0.97;0.97;;;9.40;99.90;;;;;;5032510;28;20208;-62
2022/05/07 05:13:56;;;;;;;0.93;0.93;;;9.60;99.90;;;;;;5031372;28;20251;-60
2022/05/07 05:16:24;;;;;;;1.00;1.00;;;9.80;99.90;;;;;;5031628;28;20556;-63
2022/05/07 05:18:52;;;;;;;0.90;0.90;;;10.00;99.90;;;;;;5032156;28;20304;-62
2022/05/07 05:21:19;;;;;;;0.80;0.80;;;10.20;99.90;;;;;;5031440;28;20414;-61
2022/05/07 05:23:46;;;;;;;0.90;0.90;;;10.40;99.90;;;;;;5031297;28;20229;-62
2022/05/07 05:26:13;;;;;;;1.17;1.07;;;10.60;99.90;;;;;;5031337;28;20228;-62
2022/05/07 05:28:42;;;;;;;0.93;0.93;;;10.80;99.90;;;;;;5031130;28;20218;-61
2022/05/07 05:31:09;;;;;;;0.93;0.93;;;10.90;99.90;;;;;;5032915;28;20227;-61
2022/05/07 05:33:38;;;;;;;1.17;1.17;;;11.00;99.90;;;;;;5055383;28;20299;-63
2022/05/07 05:36:05;;;;;;;1.07;1.07;;;11.10;99.90;;;;;;5052233;28;20705;-63
2022/05/07 05:38:32;;;;;;;0.90;0.90;;;11.20;99.90;;;;;;5072369;22;20271;-69
2022/05/07 05:40:59;;;;;;;0.80;0.80;;;11.50;99.90;;;;;;5041531;28;20304;-70
2022/05/07 05:43:26;;;;;;;1.00;0.90;;;11.60;99.90;;;;;;5051690;28;21058;-69
2022/05/07 05:45:52;;;;;;;1.60;1.03;;;11.80;99.90;;;;;;5051870;28;20306;-69
2022/05/07 05:48:19;;;;;;;1.10;1.00;;;11.90;99.90;;;;;;5051848;28;20263;-68
2022/05/07 05:50:47;;;;;;;1.00;1.00;;;12.00;99.90;;;;;;5051654;28;20286;-68
2022/05/07 05:53:14;;;;;;;1.00;1.00;;;12.20;99.90;;;;;;5052040;28;20200;-69
2022/05/07 05:55:41;;;;;;;0.80;0.80;;;12.30;99.90;;;;;;5056771;28;20231;-69
2022/05/07 05:58:08;;;;;;;0.83;0.83;;;12.40;99.90;;;;;;5052880;28;20257;-69
2022/05/07 06:00:35;;;;;;;1.00;1.00;;;12.50;99.90;;;;;;5052249;28;20235;-68
2022/05/07 06:03:02;;;;;;;0.90;0.90;;;12.70;99.90;;;;;;5059420;28;20314;-69
2022/05/07 06:05:29;;;;;;;0.80;0.80;;;12.80;99.90;;;;;;5060406;28;20199;-70
2022/05/07 06:07:57;;;;;;;0.90;0.90;;;12.90;99.90;;;;;;5058860;28;20248;-70
2022/05/07 06:10:24;;;;;;;0.90;0.90;;;13.00;99.90;;;;;;5051001;28;20286;-69
2022/05/07 06:12:51;;;;;;;1.00;1.00;;;13.10;99.90;;;;;;5052690;28;20200;-68
2022/05/07 06:15:18;;;;;;;0.90;0.90;;;13.30;99.90;;;;;;5052924;28;20291;-68
2022/05/07 06:17:45;;;;;;;0.97;0.97;;;13.50;99.90;;;;;;5051612;28;20215;-71
2022/05/07 06:20:12;;;;;;;0.90;0.90;;;13.60;99.90;;;;;;5050289;28;20319;-69
2022/05/07 06:22:39;;;;;;;0.87;0.87;;;13.60;99.90;;;;;;5052102;28;20255;-69
2022/05/07 06:27:53;;;;;;;1.03;1.03;;;13.80;99.90;;;;;;5051377;28;20346;-67
2022/05/07 06:30:20;;;;;;;1.00;1.00;;;13.90;99.90;;;;;;5035821;28;20282;-67
2022/05/07 06:32:47;;;;;;;0.90;0.90;;;14.00;99.90;;;;;;5036421;28;20759;-68
2022/05/07 06:35:14;;;;;;;1.10;1.10;;;14.10;99.90;;;;;;5033736;28;20665;-67
2022/05/07 06:37:46;;;;;;;1.00;1.00;;;14.20;99.90;;;;;;5031557;28;20219;-67
2022/05/07 06:40:14;;;;;;;1.43;0.90;;;14.30;99.90;;;;;;5029122;28;20298;-66
2022/05/07 06:42:43;;;;;;;0.80;0.80;;;14.30;99.90;;;;;;5031479;28;20252;-68
2022/05/07 06:45:11;;;;;;;0.90;0.90;;;14.50;99.90;;;;;;5031633;28;20205;-69
2022/05/07 06:47:38;;;;;;;1.00;1.00;;;14.70;99.90;;;;;;5031426;28;20242;-69
2022/05/07 06:50:06;;;;;;;0.80;0.80;;;14.90;99.90;;;;;;5025673;28;20229;-69
2022/05/07 06:52:33;;;;;;;0.77;0.77;;;15.00;99.90;;;;;;5044003;28;20785;-68
2022/05/07 06:55:00;;;;;;;1.03;1.03;;;15.20;99.90;;;;;;5052051;28;20666;-68
2022/05/07 06:57:29;;;;;;;1.30;1.30;;;15.50;99.90;;;;;;5055005;28;20204;-68
2022/05/07 06:59:55;;;;;;;0.80;0.80;;;15.70;99.90;;;;;;5044625;28;20599;-67
2022/05/07 07:02:22;;;;;;;0.90;0.90;;;15.80;99.90;;;;;;5043976;28;20331;-68
2022/05/07 07:04:49;;;;;;;0.90;0.90;;;15.90;99.90;;;;;;5037350;28;20283;-68
2022/05/07 07:07:24;;;;;;;1.00;1.00;;;16.00;99.90;;;;;;5038089;28;20299;-69
2022/05/07 07:09:51;;;;;;;0.80;0.80;;;16.10;99.90;;;;;;5037086;28;20223;-68
2022/05/07 07:12:19;;;;;;;1.07;1.07;;;16.10;99.90;;;;;;5051549;28;20286;-69
2022/05/07 07:14:48;;;;;;;1.17;1.17;;;16.10;99.90;;;;;;5058461;28;20211;-69
2022/05/07 07:17:17;;;;;;;1.30;1.20;;;16.20;99.90;;;;;;5034489;28;20201;-68
2022/05/07 07:19:44;;;;;;;1.20;1.20;;;16.20;99.90;;;;;;5033404;28;20252;-66
2022/05/07 07:22:11;;;;;;;1.20;1.20;;;16.30;99.90;;;;;;5032506;28;20205;-68
2022/05/07 07:24:37;;;;;;;1.40;1.40;;;16.30;99.90;;;;;;5032815;28;20228;-67
2022/05/07 07:27:05;;;;;;;1.40;1.40;;;16.40;99.90;;;;;;5035054;28;20271;-67
2022/05/07 07:29:33;;;;;;;1.60;1.50;;;16.40;99.90;;;;;;5051143;28;20910;-67
2022/05/07 07:32:01;;;;;;;1.40;1.40;;;16.30;99.90;;;;;;5044788;28;20270;-67
2022/05/07 07:34:28;;;;;;;1.67;1.57;;;16.20;99.90;;;;;;5037704;28;20197;-67
2022/05/07 07:36:55;;;;;;;1.67;1.57;;;16.20;99.90;;;;;;5029701;28;20685;-68
2022/05/07 07:39:22;;;;;;;1.33;1.33;;;16.10;99.90;;;;;;5022156;28;20659;-67
2022/05/07 07:41:49;;;;;;;1.23;1.23;;;16.10;99.90;;;;;;5030837;28;20205;-69
2022/05/07 07:44:16;;;;;;;1.87;1.40;;;16.30;99.90;;;;;;5026767;28;20769;-68
2022/05/07 07:49:28;;;;;;;1.70;1.60;;;16.40;99.90;;;;;;5027195;28;20227;-69
2022/05/07 07:51:56;;;;;;;1.20;1.20;;;16.50;99.90;;;;;;5024841;28;20659;-68
2022/05/07 07:54:23;;;;;;;1.70;1.60;;;16.30;99.90;;;;;;5037952;28;20219;-69
2022/05/07 07:56:50;;;;;;;1.40;1.30;;;16.10;99.90;;;;;;5033676;28;20689;-68
2022/05/07 07:59:16;;;;;;;1.30;1.30;;;16.50;99.90;;;;;;5032732;28;20624;-68
2022/05/07 08:01:43;;;;;;;1.37;1.30;;;16.40;99.90;;;;;;5039380;28;20240;-68
2022/05/07 08:04:10;;;;;;;1.23;1.23;;;16.30;99.90;;;;;;5041276;28;20303;-69
2022/05/07 08:06:38;;;;;;;1.37;1.33;;;16.60;99.90;;;;;;5034714;28;20200;-69
2022/05/07 08:11:55;;;;;;;2.17;1.40;;;17.20;99.90;;;;;;5036440;28;20619;-69
2022/05/07 08:14:22;;;;;;;1.70;1.60;;;17.30;99.90;;;;;;5041855;28;20224;-69
2022/05/07 08:16:49;;;;;;;1.63;1.53;;;17.50;99.90;;;;;;5037037;28;20232;-69
2022/05/07 08:19:16;;;;;;;1.40;1.30;;;17.70;99.90;;;;;;5040338;28;20307;-69
2022/05/07 08:21:45;;;;;;;1.57;1.40;;;17.70;99.90;;;;;;5043747;28;20212;-69
2022/05/07 08:24:17;;;;;;;1.20;1.20;;;17.90;99.90;;;;;;5055451;28;20288;-70
2022/05/07 08:26:43;;;;;;;1.97;1.20;;;17.60;99.90;;;;;;5069771;28;20184;-68
2022/05/07 08:29:10;;;;;;;1.23;1.20;;;17.60;99.90;;;;;;5065817;28;20239;-69
2022/05/07 08:31:37;;;;;;;1.10;1.10;;;17.80;99.90;;;;;;5046356;28;20197;-68
2022/05/07 08:34:04;;;;;;;1.50;1.40;;;17.80;99.90;;;;;;5041211;28;20243;-69
2022/05/07 08:36:31;;;;;;;1.20;1.20;;;17.70;99.90;;;;;;5041236;28;20204;-69
2022/05/07 08:38:59;;;;;;;1.02;1.02;;;17.50;99.90;;;;;;5034972;28;20259;-69
2022/05/07 08:41:27;;;;;;;1.10;1.10;;;17.40;99.90;;;;;;5036077;28;20577;-67
2022/05/07 08:43:53;;;;;;;1.00;1.00;;;17.30;99.90;;;;;;5037333;28;20303;-70
2022/05/07 08:46:20;;;;;;;0.90;0.90;;;17.30;99.90;;;;;;5030852;28;20232;-70
2022/05/07 08:48:50;;;;;;;1.17;1.10;;;17.50;99.90;;;;;;5027794;28;20671;-69
2022/05/07 08:51:20;;;;;;;1.57;1.40;;;17.60;99.90;;;;;;5034484;28;20212;-69
2022/05/07 08:53:49;;;;;;;1.00;1.00;;;17.80;99.90;;;;;;5036347;28;20223;-70
2022/05/07 08:56:18;;;;;;;1.13;1.13;;;17.80;99.90;;;;;;5037839;28;20196;-69
2022/05/07 08:58:48;;;;;;;1.43;1.40;;;17.70;99.90;;;;;;5043291;28;20221;-69
2022/05/07 09:01:15;;;;;;;1.00;1.00;;;17.60;99.90;;;;;;5049312;28;20201;-68
2022/05/07 09:03:44;;;;;;;1.50;1.40;;;17.70;99.90;;;;;;5049726;28;20319;-69
2022/05/07 09:06:23;;;;;;;0.90;0.90;;;17.80;99.90;;;;;;5055733;28;20211;-68
2022/05/07 09:08:51;;;;;;;1.23;1.23;;;17.70;99.90;;;;;;5036069;28;20251;-67
2022/05/07 09:11:19;;;;;;;1.80;1.53;;;17.90;99.90;;;;;;5036037;28;20208;-69
2022/05/07 09:13:47;;;;;;;1.37;1.30;;;18.20;99.90;;;;;;5034693;28;20205;-67
2022/05/07 09:16:15;;;;;;;1.20;1.20;;;18.10;99.90;;;;;;5040428;28;20292;-69
2022/05/07 09:18:48;;;;;;;1.80;1.70;;;18.10;99.90;;;;;;5045936;28;20217;-69
2022/05/07 09:21:19;;;;;;;1.40;1.30;;;18.10;99.90;;;;;;5045909;28;20201;-68
2022/05/07 09:23:48;;;;;;;1.60;1.30;;;18.10;99.90;;;;;;5049672;28;20212;-69
2022/05/07 09:26:29;;;;;;;1.27;1.27;;;18.10;99.90;;;;;;5048478;28;20300;-69
2022/05/07 09:28:56;;;;;;;1.67;1.57;;;18.00;99.90;;;;;;5045515;28;20232;-68
2022/05/07 09:31:26;;;;;;;1.20;1.20;;;18.10;99.90;;;;;;5043162;28;20288;-68
2022/05/07 09:33:53;;;;;;;18.53;17.33;;;18.10;99.90;;;;;;5048443;28;20676;-67
2022/05/07 09:36:19;;;;;;;7.27;6.87;;;18.20;99.90;;;;;;5052417;28;20236;-69
2022/05/07 09:38:48;;;;;;;1.60;1.50;;;18.20;99.90;;;;;;5053002;28;20232;-68
2022/05/07 09:41:21;;;;;;;2.67;1.90;;;18.30;99.90;;;;;;5050515;28;20287;-68
2022/05/07 09:43:51;;;;;;;1.30;1.30;;;18.40;99.90;;;;;;5037595;28;20262;-68
2022/05/07 09:46:19;;;;;;;3.80;3.50;;;18.50;99.90;;;;;;5022558;28;20224;-66
2022/05/07 09:48:47;;;;;;;1.80;1.70;;;18.50;99.90;;;;;;5026996;28;20244;-68
2022/05/07 09:51:14;;;;;;;1.70;1.65;;;18.60;99.90;;;;;;5027981;28;20200;-68
2022/05/07 09:59:16;;;;;;;1.77;1.67;;;18.50;99.90;;;;;;5026826;28;20672;-68
2022/05/07 10:02:05;;;;;;;1.60;1.50;;;18.50;99.90;;;;;;5031771;28;20208;-68
2022/05/07 10:04:54;;;;;;;1.70;1.60;;;18.60;99.90;;;;;;5031058;28;20230;-68
2022/05/07 10:07:40;;;;;;;2.17;1.70;;;18.80;99.90;;;;;;5035441;28;20283;-69
2022/05/07 10:10:25;;;;;;;1.20;1.20;;;19.00;99.90;;;;;;5032566;28;20307;-68
2022/05/07 10:12:55;;;;;;;1.30;1.30;;;19.00;99.90;;;;;;5034008;28;20197;-67
2022/05/07 10:15:25;;;;;;;1.00;1.00;;;19.00;99.90;;;;;;5038234;28;20287;-68
2022/05/07 10:18:01;;;;;;;1.30;1.30;;;19.10;99.90;;;;;;5029064;28;20284;-68
2022/05/07 10:20:37;;;;;;;1.13;1.13;;;19.60;99.90;;;;;;5025266;28;20255;-70
2022/05/07 10:23:06;;;;;;;2.47;2.27;;;20.00;99.90;;;;;;5028234;28;20682;-70
2022/05/07 10:25:33;;;;;;;1.17;1.17;;;20.10;99.90;;;;;;5038370;28;20223;-67
2022/05/07 10:28:09;;;;;;;1.00;1.00;;;20.00;99.90;;;;;;5034786;28;20197;-69
2022/05/07 10:30:50;;;;;;;1.20;1.20;;;20.00;99.90;;;;;;5024648;28;20207;-69
2022/05/07 10:33:18;;;;;;;1.53;1.43;;;19.90;99.90;;;;;;5024626;28;20235;-69
2022/05/07 10:35:48;;;;;;;0.80;0.80;;;19.90;99.90;;;;;;5018931;28;20209;-68
2022/05/07 10:38:16;;;;;;;1.37;0.90;;;19.90;99.90;;;;;;5023715;28;20228;-68
2022/05/07 10:40:53;;;;;;;1.03;0.97;;;20.10;99.90;;;;;;5029808;28;20284;-68
2022/05/07 10:43:32;;;;;;;1.00;1.00;;;20.10;99.90;;;;;;5023068;28;20741;-69
2022/05/07 10:46:04;;;;;;;0.77;0.77;;;20.30;99.90;;;;;;5027569;28;20220;-69
2022/05/07 10:48:42;;;;;;;0.63;0.63;;;20.40;99.90;;;;;;5029429;28;20232;-69
2022/05/07 10:51:18;;;;;;;0.75;0.75;;;20.40;99.90;;;;;;5024243;28;20225;-68
2022/05/07 10:53:45;;;;;;;0.98;0.95;;;20.60;99.90;;;;;;5024307;28;20220;-68
2022/05/07 10:56:16;;;;;;;0.88;0.88;;;20.60;99.90;;;;;;5026162;28;20196;-68
2022/05/07 10:58:48;;;;;;;0.77;0.77;;;20.60;99.90;;;;;;5027736;28;20216;-68
2022/05/07 11:01:17;;;;;;;0.80;0.80;;;20.60;99.90;;;;;;5033040;28;20204;-69
2022/05/07 11:03:44;;;;;;;0.87;0.87;;;20.60;99.90;;;;;;5028088;28;20223;-68
2022/05/07 11:06:11;;;;;;;0.75;0.75;;;20.70;99.90;;;;;;5025388;28;20622;-69
2022/05/07 11:08:49;;;;;;;1.20;1.20;;;20.90;99.90;;;;;;5028853;28;20228;-68
2022/05/07 11:11:17;;;;;;;0.93;0.90;;;21.30;99.90;;;;;;5025528;28;20199;-69
2022/05/07 11:13:51;;;;;;;1.40;0.95;;;21.40;99.90;;;;;;5023399;28;20288;-69
2022/05/07 11:16:20;;;;;;;0.90;0.90;;;21.70;99.90;;;;;;5022274;28;20211;-68
2022/05/07 11:18:51;;;;;;;0.87;0.70;;;21.60;99.90;;;;;;5029496;28;20297;-69
2022/05/07 11:21:24;;;;;;;0.90;0.90;;;21.50;99.90;;;;;;5030213;28;20196;-68
2022/05/07 11:23:54;;;;;;;0.90;0.90;;;21.50;99.90;;;;;;5035065;28;20231;-68
2022/05/07 11:26:22;;;;;;;0.80;0.80;;;21.70;99.90;;;;;;5045268;28;20666;-68
2022/05/07 11:28:49;;;;;;;1.52;0.90;;;21.70;99.90;;;;;;5048121;28;20252;-68
2022/05/07 11:31:28;;;;;;;1.55;1.45;;;22.00;99.90;;;;;;5055790;28;20712;-68
2022/05/07 11:34:03;;;;;;;4.85;4.55;;;22.40;99.90;;;;;;5043966;28;20330;-68
2022/05/07 11:36:31;;;;;;;1.10;1.10;;;22.60;99.90;;;;;;5039288;28;20291;-68
2022/05/07 11:38:59;;;;;;;1.00;0.90;;;22.60;99.90;;;;;;5038498;28;20302;-71
2022/05/07 11:41:26;;;;;;;1.37;1.27;;;22.40;99.90;;;;;;5031591;28;20200;-69
2022/05/07 11:46:50;;;;;;;1.25;0.80;;;22.20;99.90;;;;;;5027249;28;20242;-69
2022/05/07 11:49:27;;;;;;;0.80;0.80;;;22.10;99.90;;;;;;5028919;28;20308;-69
2022/05/07 11:52:04;;;;;;;0.70;0.70;;;22.00;99.90;;;;;;5034338;28;20294;-68
2022/05/07 11:54:31;;;;;;;1.00;1.00;;;21.80;99.90;;;;;;5034171;28;20341;-68
2022/05/07 11:56:59;;;;;;;0.73;0.73;;;21.70;99.90;;;;;;5024086;28;20747;-69
2022/05/07 11:59:26;;;;;;;2.67;1.63;;;21.70;99.90;;;;;;5027423;28;20754;-72
2022/05/07 12:01:55;;;;;;;0.70;0.70;;;21.70;99.90;;;;;;5029089;28;20208;-69
2022/05/07 12:04:32;;;;;;;1.00;1.00;;;21.70;99.90;;;;;;5031192;28;20228;-69
2022/05/07 12:06:58;;;;;;;1.20;1.20;;;21.80;99.90;;;;;;5036238;28;20214;-69
2022/05/07 12:09:28;;;;;;;1.08;1.08;;;21.80;99.90;;;;;;5044520;28;20224;-68
2022/05/07 12:11:56;;;;;;;1.07;0.90;;;21.90;99.90;;;;;;5038240;28;20287;-71
2022/05/07 12:14:23;;;;;;;0.60;0.60;;;21.80;99.90;;;;;;5036850;28;20247;-70
2022/05/07 12:19:36;;;;;;;2.10;0.90;;;22.40;99.90;;;;;;5028025;28;20261;-70
2022/05/07 12:30:18;;;;;;;0.80;0.73;;;23.30;99.90;;;;;;5028034;28;20204;-68
2022/05/07 12:32:45;;;;;;;1.00;1.00;;;23.30;99.90;;;;;;5021523;28;20221;-69
2022/05/07 12:35:14;;;;;;;1.20;1.10;;;23.40;99.90;;;;;;5021609;28;20225;-69
2022/05/07 12:37:41;;;;;;;0.80;0.80;;;23.60;99.90;;;;;;5018663;28;20285;-68
2022/05/07 12:40:09;;;;;;;1.00;1.00;;;23.80;99.90;;;;;;5024541;28;20248;-69
2022/05/07 12:42:36;;;;;;;1.08;0.98;;;23.80;99.90;;;;;;5024130;28;20292;-70
2022/05/07 12:45:03;;;;;;;0.98;0.98;;;23.80;99.90;;;;;;5023161;28;20305;-69
2022/05/07 12:47:30;;;;;;;2.17;0.88;;;23.60;99.90;;;;;;5026903;28;20207;-69
2022/05/07 12:49:57;;;;;;;0.80;0.80;;;23.30;99.90;;;;;;5023567;28;20231;-68
2022/05/07 12:52:25;;;;;;;0.95;0.95;;;23.20;99.90;;;;;;5016655;28;20214;-68
2022/05/07 12:54:52;;;;;;;0.70;0.70;;;23.30;99.90;;;;;;5023978;28;20291;-68
2022/05/07 12:57:19;;;;;;;0.70;0.70;;;23.30;99.90;;;;;;5022674;28;20216;-67
2022/05/07 12:59:46;;;;;;;0.60;0.60;;;23.20;99.90;;;;;;5022037;28;20238;-68
2022/05/07 13:02:14;;;;;;;0.77;0.77;;;23.00;99.90;;;;;;5026534;28;20360;-70
2022/05/07 13:04:41;;;;;;;1.10;1.10;;;22.80;99.90;;;;;;5027398;28;20216;-68
2022/05/07 13:07:08;;;;;;;1.00;1.00;;;22.80;99.90;;;;;;5017014;28;20558;-68
2022/05/07 13:09:36;;;;;;;0.70;0.70;;;22.90;99.90;;;;;;5024469;28;20225;-68
2022/05/07 13:12:03;;;;;;;0.90;0.90;;;22.90;99.90;;;;;;5031133;28;20205;-67
2022/05/07 13:14:32;;;;;;;0.70;0.70;;;23.00;99.90;;;;;;5021277;28;20949;-69
2022/05/07 13:16:59;;;;;;;0.80;0.80;;;23.30;99.90;;;;;;5020937;28;20209;-70
2022/05/07 13:19:26;;;;;;;1.20;1.20;;;23.30;99.90;;;;;;5021656;28;20315;-69
2022/05/07 13:21:54;;;;;;;0.93;0.93;;;23.40;99.90;;;;;;5015070;28;20206;-69
2022/05/07 13:24:20;;;;;;;1.70;1.60;;;23.60;99.90;;;;;;5017845;28;20348;-68
2022/05/07 13:26:49;;;;;;;1.70;1.60;;;23.60;99.90;;;;;;5027160;28;20587;-70
2022/05/07 13:29:16;;;;;;;1.10;1.10;;;23.60;99.90;;;;;;5070520;28;20251;-68
2022/05/07 13:31:43;;;;;;;1.10;1.10;;;23.80;99.90;;;;;;5052545;28;20204;-68